NJE171L LFSB-LPPT
Flight info
| Callsign | NJE171L |
|---|---|
| Flight time | 2h 27m |
| Altitude | 39000 |
| Route | MOROK T14 GILIR DCT TUROM DCT NINTU DCT MEBAK DCT REPSI DCT LERGA DCT MINSO DCT NARAK DCT AGN DCT PIPOR L866 PPN N976 DGO DCT NEA DCT ARDID DCT INBOM |
| Aircraft | B737/M-SDE2E3FGHIRWXY/L |
Departure
| Time | 2026-05-04 18:35 |
|---|---|
| Airport | EuroAirport Basel–Mulhouse–Freiburg (LFSB) |
Arrival
| Time | 2026-05-04 21:03 |
|---|---|
| Airport | Lisbon Humberto Delgado Airport (LPPT) |
| Time | Latitude | Longitude | Altitude | Speed | Heading |
|---|---|---|---|---|---|
| 2026-05-04 18:18 | 47.59290 | 7.53712 | 889 ft | 0 kts | 186° |
| 2026-05-04 18:26 | 47.59287 | 7.53712 | 889 ft | 2 kts | 182° |
| 2026-05-04 18:26 | 47.59258 | 7.53719 | 889 ft | 5 kts | 168° |
| 2026-05-04 18:27 | 47.59224 | 7.53713 | 889 ft | 5 kts | 207° |
| 2026-05-04 18:27 | 47.59204 | 7.53666 | 889 ft | 7 kts | 252° |
| 2026-05-04 18:27 | 47.59191 | 7.53584 | 889 ft | 9 kts | 257° |
| 2026-05-04 18:27 | 47.59176 | 7.53494 | 889 ft | 9 kts | 257° |
| 2026-05-04 18:28 | 47.59163 | 7.53407 | 889 ft | 9 kts | 257° |
| 2026-05-04 18:28 | 47.59147 | 7.53311 | 889 ft | 11 kts | 258° |
| 2026-05-04 18:28 | 47.59173 | 7.53221 | 889 ft | 10 kts | 302° |
| 2026-05-04 18:28 | 47.59182 | 7.53126 | 889 ft | 9 kts | 277° |
| 2026-05-04 18:29 | 47.59221 | 7.53056 | 889 ft | 9 kts | 332° |
| 2026-05-04 18:29 | 47.59277 | 7.53015 | 889 ft | 9 kts | 334° |
| 2026-05-04 18:29 | 47.59337 | 7.52973 | 889 ft | 10 kts | 335° |
| 2026-05-04 18:29 | 47.59410 | 7.52923 | 889 ft | 12 kts | 335° |
| 2026-05-04 18:30 | 47.59559 | 7.52819 | 889 ft | 12 kts | 335° |
| 2026-05-04 18:30 | 47.59631 | 7.52769 | 889 ft | 11 kts | 335° |
| 2026-05-04 18:30 | 47.59701 | 7.52720 | 889 ft | 11 kts | 335° |
| 2026-05-04 18:31 | 47.59772 | 7.52671 | 889 ft | 12 kts | 335° |
| 2026-05-04 18:31 | 47.59845 | 7.52621 | 889 ft | 11 kts | 335° |
| 2026-05-04 18:31 | 47.59915 | 7.52572 | 889 ft | 11 kts | 335° |
| 2026-05-04 18:31 | 47.59986 | 7.52523 | 889 ft | 12 kts | 335° |
| 2026-05-04 18:32 | 47.60073 | 7.52463 | 889 ft | 14 kts | 335° |
| 2026-05-04 18:32 | 47.60161 | 7.52402 | 889 ft | 14 kts | 335° |
| 2026-05-04 18:32 | 47.60245 | 7.52343 | 888 ft | 13 kts | 334° |
| 2026-05-04 18:32 | 47.60335 | 7.52281 | 884 ft | 16 kts | 335° |
| 2026-05-04 18:33 | 47.60435 | 7.52212 | 882 ft | 15 kts | 335° |
| 2026-05-04 18:33 | 47.60530 | 7.52145 | 881 ft | 15 kts | 335° |
| 2026-05-04 18:33 | 47.60574 | 7.52074 | 881 ft | 8 kts | 267° |
| 2026-05-04 18:33 | 47.60555 | 7.51999 | 880 ft | 8 kts | 242° |
| 2026-05-04 18:34 | 47.60533 | 7.51930 | 880 ft | 7 kts | 245° |
| 2026-05-04 18:34 | 47.60504 | 7.51873 | 880 ft | 7 kts | 196° |
| 2026-05-04 18:34 | 47.60458 | 7.51897 | 881 ft | 7 kts | 152° |
| 2026-05-04 18:34 | 47.60378 | 7.51956 | 882 ft | 36 kts | 154° |
| 2026-05-04 18:35 | 47.59892 | 7.52294 | 887 ft | 117 kts | 155° |
| 2026-05-04 18:35 | 47.58979 | 7.52936 | 1093 ft | 164 kts | 154° |
| 2026-05-04 18:35 | 47.57900 | 7.53699 | 1786 ft | 182 kts | 154° |
| 2026-05-04 18:35 | 47.56677 | 7.54349 | 2562 ft | 195 kts | 177° |
| 2026-05-04 18:36 | 47.55286 | 7.53734 | 2801 ft | 231 kts | 221° |
| 2026-05-04 18:36 | 47.54563 | 7.51684 | 3760 ft | 228 kts | 262° |
| 2026-05-04 18:36 | 47.54372 | 7.49400 | 4957 ft | 220 kts | 258° |
| 2026-05-04 18:36 | 47.54064 | 7.47174 | 6056 ft | 223 kts | 254° |
| 2026-05-04 18:37 | 47.53673 | 7.44911 | 6961 ft | 230 kts | 253° |
| 2026-05-04 18:37 | 47.53302 | 7.42506 | 7558 ft | 254 kts | 255° |
| 2026-05-04 18:37 | 47.52917 | 7.39867 | 8328 ft | 267 kts | 255° |
| 2026-05-04 18:37 | 47.52518 | 7.37154 | 9354 ft | 271 kts | 255° |
| 2026-05-04 18:38 | 47.52106 | 7.34421 | 10363 ft | 275 kts | 254° |
| 2026-05-04 18:38 | 47.51660 | 7.31539 | 10780 ft | 301 kts | 254° |
| 2026-05-04 18:38 | 47.51170 | 7.28422 | 11363 ft | 316 kts | 255° |
| 2026-05-04 18:38 | 47.50665 | 7.25225 | 12263 ft | 321 kts | 255° |
| 2026-05-04 18:39 | 47.50156 | 7.22026 | 13230 ft | 326 kts | 255° |
| 2026-05-04 18:39 | 47.49629 | 7.18734 | 14157 ft | 331 kts | 255° |
| 2026-05-04 18:39 | 47.49093 | 7.15403 | 15076 ft | 335 kts | 255° |
| 2026-05-04 18:39 | 47.48550 | 7.12034 | 16046 ft | 338 kts | 255° |
| 2026-05-04 18:40 | 47.48001 | 7.08635 | 16998 ft | 342 kts | 256° |
| 2026-05-04 18:40 | 47.47444 | 7.05201 | 17936 ft | 346 kts | 256° |
| 2026-05-04 18:40 | 47.47069 | 7.02894 | 18523 ft | 349 kts | 256° |
| 2026-05-04 18:40 | 47.46497 | 6.99386 | 19345 ft | 353 kts | 255° |
| 2026-05-04 18:41 | 47.45849 | 6.95860 | 20144 ft | 357 kts | 252° |
| 2026-05-04 18:41 | 47.44894 | 6.91175 | 21204 ft | 362 kts | 251° |
| 2026-05-04 18:41 | 47.44394 | 6.88757 | 21746 ft | 365 kts | 251° |
| 2026-05-04 18:41 | 47.43661 | 6.85189 | 22524 ft | 370 kts | 251° |
| 2026-05-04 18:42 | 47.42906 | 6.81482 | 23303 ft | 374 kts | 251° |
| 2026-05-04 18:42 | 47.42167 | 6.77823 | 23961 ft | 379 kts | 251° |
| 2026-05-04 18:42 | 47.41411 | 6.74073 | 24592 ft | 382 kts | 250° |
| 2026-05-04 18:42 | 47.40647 | 6.70293 | 25238 ft | 386 kts | 250° |
| 2026-05-04 18:43 | 47.39698 | 6.66596 | 25820 ft | 386 kts | 238° |
| 2026-05-04 18:43 | 47.38086 | 6.63471 | 26561 ft | 381 kts | 222° |
| 2026-05-04 18:43 | 47.36091 | 6.60911 | 27304 ft | 380 kts | 218° |
| 2026-05-04 18:43 | 47.34026 | 6.58425 | 27859 ft | 385 kts | 218° |
| 2026-05-04 18:44 | 47.31947 | 6.55894 | 28391 ft | 390 kts | 218° |
| 2026-05-04 18:44 | 47.30568 | 6.54189 | 28758 ft | 392 kts | 218° |
| 2026-05-04 18:44 | 47.27766 | 6.50692 | 29493 ft | 396 kts | 218° |
| 2026-05-04 18:44 | 47.25666 | 6.48060 | 30019 ft | 399 kts | 218° |
| 2026-05-04 18:45 | 47.23542 | 6.45398 | 30431 ft | 402 kts | 219° |
| 2026-05-04 18:45 | 47.21402 | 6.42718 | 30841 ft | 404 kts | 219° |
| 2026-05-04 18:45 | 47.19252 | 6.40029 | 31235 ft | 406 kts | 219° |
| 2026-05-04 18:45 | 47.17093 | 6.37333 | 31651 ft | 408 kts | 219° |
| 2026-05-04 18:46 | 47.14930 | 6.34635 | 32078 ft | 408 kts | 219° |
| 2026-05-04 18:46 | 47.12768 | 6.31941 | 32607 ft | 406 kts | 219° |
| 2026-05-04 18:46 | 47.10647 | 6.29301 | 33160 ft | 403 kts | 220° |
| 2026-05-04 18:46 | 47.08512 | 6.26647 | 33662 ft | 402 kts | 220° |
| 2026-05-04 18:47 | 47.06380 | 6.24003 | 34079 ft | 401 kts | 220° |
| 2026-05-04 18:47 | 47.04243 | 6.21353 | 34454 ft | 401 kts | 220° |
| 2026-05-04 18:47 | 47.02108 | 6.18707 | 34794 ft | 401 kts | 220° |
| 2026-05-04 18:47 | 46.99970 | 6.16059 | 35086 ft | 402 kts | 220° |
| 2026-05-04 18:48 | 46.97841 | 6.13424 | 35524 ft | 400 kts | 220° |
| 2026-05-04 18:48 | 46.95722 | 6.10803 | 35950 ft | 398 kts | 220° |
| 2026-05-04 18:48 | 46.93604 | 6.08187 | 36215 ft | 399 kts | 220° |
| 2026-05-04 18:48 | 46.91475 | 6.05558 | 36452 ft | 401 kts | 220° |
| 2026-05-04 18:49 | 46.89336 | 6.02921 | 36765 ft | 401 kts | 220° |
| 2026-05-04 18:49 | 46.87203 | 6.00296 | 37102 ft | 400 kts | 220° |
| 2026-05-04 18:49 | 46.85027 | 5.97747 | 37363 ft | 402 kts | 216° |
| 2026-05-04 18:49 | 46.82664 | 5.95642 | 37612 ft | 404 kts | 208° |
| 2026-05-04 18:50 | 46.80078 | 5.94007 | 37915 ft | 405 kts | 204° |
| 2026-05-04 18:50 | 46.77460 | 5.92461 | 38224 ft | 405 kts | 204° |
| 2026-05-04 18:50 | 46.74839 | 5.90920 | 38451 ft | 407 kts | 204° |
| 2026-05-04 18:50 | 46.72210 | 5.89371 | 38658 ft | 408 kts | 204° |
| 2026-05-04 18:51 | 46.69582 | 5.87813 | 38863 ft | 408 kts | 204° |
| 2026-05-04 18:51 | 46.66949 | 5.86247 | 39014 ft | 410 kts | 204° |
| 2026-05-04 18:51 | 46.64284 | 5.84656 | 39007 ft | 414 kts | 205° |
| 2026-05-04 18:52 | 46.58964 | 5.81481 | 38998 ft | 412 kts | 204° |
| 2026-05-04 18:52 | 46.53703 | 5.78347 | 39005 ft | 406 kts | 205° |
| 2026-05-04 18:53 | 46.48517 | 5.75262 | 39015 ft | 405 kts | 205° |
| 2026-05-04 18:53 | 46.43303 | 5.72166 | 39013 ft | 404 kts | 204° |
| 2026-05-04 18:54 | 46.38102 | 5.69085 | 39016 ft | 403 kts | 204° |
| 2026-05-04 18:54 | 46.32907 | 5.66015 | 39013 ft | 403 kts | 204° |
| 2026-05-04 18:55 | 46.27719 | 5.62954 | 39019 ft | 403 kts | 204° |
| 2026-05-04 18:55 | 46.19928 | 5.58369 | 39014 ft | 403 kts | 204° |
| 2026-05-04 18:56 | 46.15085 | 5.54384 | 39021 ft | 401 kts | 220° |
| 2026-05-04 18:56 | 46.11318 | 5.48468 | 39017 ft | 402 kts | 234° |
| 2026-05-04 18:57 | 46.08147 | 5.41797 | 39013 ft | 405 kts | 235° |
| 2026-05-04 18:57 | 46.04989 | 5.35121 | 39002 ft | 406 kts | 235° |
| 2026-05-04 18:58 | 46.01775 | 5.28406 | 38993 ft | 408 kts | 234° |
| 2026-05-04 18:58 | 45.98537 | 5.21694 | 38995 ft | 409 kts | 234° |
| 2026-05-04 18:59 | 45.95284 | 5.14975 | 38992 ft | 409 kts | 234° |
| 2026-05-04 18:59 | 45.92024 | 5.08260 | 38998 ft | 410 kts | 234° |
| 2026-05-04 19:00 | 45.88758 | 5.01545 | 38990 ft | 409 kts | 234° |
| 2026-05-04 19:00 | 45.85495 | 4.94854 | 38984 ft | 409 kts | 234° |
| 2026-05-04 19:01 | 45.82230 | 4.88173 | 38990 ft | 408 kts | 234° |
| 2026-05-04 19:01 | 45.78986 | 4.81550 | 38995 ft | 408 kts | 234° |
| 2026-05-04 19:02 | 45.75715 | 4.74888 | 38993 ft | 408 kts | 234° |
| 2026-05-04 19:02 | 45.72444 | 4.68237 | 38987 ft | 408 kts | 234° |
| 2026-05-04 19:03 | 45.69170 | 4.61596 | 38981 ft | 408 kts | 234° |
| 2026-05-04 19:03 | 45.65892 | 4.54944 | 38970 ft | 409 kts | 234° |
| 2026-05-04 19:04 | 45.62636 | 4.48345 | 38969 ft | 409 kts | 234° |
| 2026-05-04 19:04 | 45.59497 | 4.41560 | 38970 ft | 409 kts | 238° |
| 2026-05-04 19:05 | 45.56599 | 4.34562 | 38968 ft | 410 kts | 239° |
| 2026-05-04 19:05 | 45.53708 | 4.27550 | 38981 ft | 410 kts | 238° |
| 2026-05-04 19:06 | 45.50788 | 4.20569 | 38971 ft | 410 kts | 238° |
| 2026-05-04 19:06 | 45.47852 | 4.13616 | 38966 ft | 409 kts | 238° |
| 2026-05-04 19:07 | 45.44904 | 4.06669 | 39013 ft | 413 kts | 238° |
| 2026-05-04 19:07 | 45.43409 | 4.03156 | 39126 ft | 415 kts | 238° |
| 2026-05-04 19:07 | 45.41912 | 3.99639 | 39338 ft | 415 kts | 238° |
| 2026-05-04 19:08 | 45.40415 | 3.96128 | 39561 ft | 414 kts | 238° |
| 2026-05-04 19:08 | 45.38913 | 3.92609 | 39726 ft | 415 kts | 238° |
| 2026-05-04 19:08 | 45.37429 | 3.89136 | 39871 ft | 416 kts | 238° |
| 2026-05-04 19:08 | 45.35922 | 3.85616 | 40058 ft | 417 kts | 238° |
| 2026-05-04 19:09 | 45.34415 | 3.82096 | 40243 ft | 417 kts | 238° |
| 2026-05-04 19:09 | 45.32904 | 3.78574 | 40430 ft | 417 kts | 238° |
| 2026-05-04 19:09 | 45.31391 | 3.75051 | 40584 ft | 417 kts | 238° |
| 2026-05-04 19:09 | 45.29876 | 3.71529 | 40778 ft | 417 kts | 238° |
| 2026-05-04 19:10 | 45.28365 | 3.68018 | 40919 ft | 417 kts | 238° |
| 2026-05-04 19:10 | 45.26841 | 3.64484 | 40960 ft | 420 kts | 238° |
| 2026-05-04 19:10 | 45.23784 | 3.57406 | 40963 ft | 419 kts | 238° |
| 2026-05-04 19:11 | 45.20739 | 3.50374 | 40948 ft | 417 kts | 238° |
| 2026-05-04 19:11 | 45.17728 | 3.43435 | 40949 ft | 414 kts | 237° |
| 2026-05-04 19:12 | 45.13201 | 3.33039 | 40954 ft | 412 kts | 238° |
| 2026-05-04 19:13 | 45.10181 | 3.26124 | 40955 ft | 412 kts | 238° |
| 2026-05-04 19:13 | 45.07156 | 3.19214 | 40949 ft | 413 kts | 238° |
| 2026-05-04 19:14 | 45.04144 | 3.12349 | 40951 ft | 414 kts | 237° |
| 2026-05-04 19:14 | 45.01099 | 3.05427 | 40962 ft | 415 kts | 237° |
| 2026-05-04 19:15 | 44.98038 | 2.98487 | 40954 ft | 417 kts | 237° |
| 2026-05-04 19:15 | 44.94962 | 2.91529 | 40949 ft | 418 kts | 237° |
| 2026-05-04 19:16 | 44.91874 | 2.84560 | 40947 ft | 419 kts | 237° |
| 2026-05-04 19:16 | 44.88777 | 2.77589 | 40941 ft | 420 kts | 237° |
| 2026-05-04 19:17 | 44.85670 | 2.70612 | 40943 ft | 420 kts | 237° |
| 2026-05-04 19:17 | 44.82582 | 2.63693 | 40948 ft | 420 kts | 237° |
| 2026-05-04 19:18 | 44.79469 | 2.56736 | 40937 ft | 420 kts | 237° |
| 2026-05-04 19:18 | 44.76353 | 2.49790 | 40937 ft | 419 kts | 237° |
| 2026-05-04 19:19 | 44.73239 | 2.42865 | 40939 ft | 418 kts | 237° |
| 2026-05-04 19:19 | 44.70129 | 2.35966 | 40937 ft | 417 kts | 237° |
| 2026-05-04 19:20 | 44.67015 | 2.29074 | 40941 ft | 417 kts | 237° |
| 2026-05-04 19:20 | 44.63919 | 2.22240 | 40939 ft | 417 kts | 237° |
| 2026-05-04 19:21 | 44.60803 | 2.15376 | 40938 ft | 416 kts | 236° |
| 2026-05-04 19:21 | 44.57684 | 2.08522 | 40932 ft | 416 kts | 237° |
| 2026-05-04 19:22 | 44.54570 | 2.01697 | 40934 ft | 415 kts | 236° |
| 2026-05-04 19:22 | 44.51453 | 1.94878 | 40936 ft | 415 kts | 236° |
| 2026-05-04 19:23 | 44.48334 | 1.88074 | 40944 ft | 415 kts | 236° |
| 2026-05-04 19:23 | 44.45236 | 1.81332 | 40940 ft | 415 kts | 236° |
| 2026-05-04 19:24 | 44.42107 | 1.74537 | 40944 ft | 415 kts | 236° |
| 2026-05-04 19:24 | 44.38971 | 1.67742 | 40935 ft | 415 kts | 236° |
| 2026-05-04 19:25 | 44.35830 | 1.60955 | 40946 ft | 416 kts | 236° |
| 2026-05-04 19:25 | 44.33215 | 1.55314 | 40944 ft | 416 kts | 236° |
| 2026-05-04 19:26 | 44.30059 | 1.48522 | 40951 ft | 417 kts | 236° |
| 2026-05-04 19:26 | 44.26889 | 1.41717 | 40949 ft | 418 kts | 236° |
| 2026-05-04 19:27 | 44.23707 | 1.34902 | 40945 ft | 419 kts | 236° |
| 2026-05-04 19:27 | 44.20519 | 1.28089 | 40940 ft | 419 kts | 236° |
| 2026-05-04 19:28 | 44.17325 | 1.21280 | 40950 ft | 420 kts | 236° |
| 2026-05-04 19:28 | 44.14127 | 1.14479 | 40964 ft | 419 kts | 236° |
| 2026-05-04 19:29 | 44.10942 | 1.07721 | 40942 ft | 420 kts | 236° |
| 2026-05-04 19:29 | 44.07735 | 1.00931 | 40952 ft | 420 kts | 236° |
| 2026-05-04 19:30 | 44.04524 | 0.94149 | 40956 ft | 420 kts | 236° |
| 2026-05-04 19:30 | 44.01307 | 0.87372 | 40954 ft | 419 kts | 236° |
| 2026-05-04 19:31 | 43.98096 | 0.80621 | 40967 ft | 419 kts | 236° |
| 2026-05-04 19:31 | 43.94877 | 0.73871 | 40977 ft | 419 kts | 236° |
| 2026-05-04 19:32 | 43.91659 | 0.67138 | 40966 ft | 419 kts | 236° |
| 2026-05-04 19:32 | 43.88438 | 0.60413 | 40965 ft | 419 kts | 236° |
| 2026-05-04 19:33 | 43.85229 | 0.53729 | 40969 ft | 418 kts | 236° |
| 2026-05-04 19:33 | 43.82002 | 0.47023 | 40965 ft | 418 kts | 236° |
| 2026-05-04 19:34 | 43.78770 | 0.40322 | 40979 ft | 417 kts | 236° |
| 2026-05-04 19:34 | 43.75539 | 0.33639 | 40975 ft | 418 kts | 236° |
| 2026-05-04 19:35 | 43.72308 | 0.26971 | 40987 ft | 417 kts | 236° |
| 2026-05-04 19:35 | 43.69073 | 0.20308 | 40986 ft | 417 kts | 236° |
| 2026-05-04 19:36 | 43.65854 | 0.13695 | 40993 ft | 417 kts | 236° |
| 2026-05-04 19:36 | 43.62610 | 0.07045 | 40981 ft | 417 kts | 236° |
| 2026-05-04 19:37 | 43.59367 | 0.00412 | 40995 ft | 417 kts | 236° |
| 2026-05-04 19:37 | 43.56115 | -0.06223 | 41007 ft | 417 kts | 236° |
| 2026-05-04 19:38 | 43.52864 | -0.12841 | 41007 ft | 417 kts | 236° |
| 2026-05-04 19:38 | 43.49604 | -0.19465 | 41013 ft | 417 kts | 236° |
| 2026-05-04 19:39 | 43.46342 | -0.26077 | 41022 ft | 417 kts | 236° |
| 2026-05-04 19:39 | 43.43095 | -0.32644 | 41021 ft | 417 kts | 236° |
| 2026-05-04 19:40 | 43.39821 | -0.39250 | 41020 ft | 417 kts | 236° |
| 2026-05-04 19:40 | 43.36548 | -0.45839 | 41020 ft | 417 kts | 236° |
| 2026-05-04 19:41 | 43.33271 | -0.52422 | 41020 ft | 416 kts | 236° |
| 2026-05-04 19:41 | 43.29998 | -0.58983 | 41021 ft | 416 kts | 235° |
| 2026-05-04 19:42 | 43.26742 | -0.65495 | 41015 ft | 416 kts | 235° |
| 2026-05-04 19:42 | 43.23462 | -0.72040 | 41018 ft | 416 kts | 235° |
| 2026-05-04 19:43 | 43.20184 | -0.78567 | 41020 ft | 416 kts | 236° |
| 2026-05-04 19:43 | 43.16898 | -0.85095 | 41025 ft | 416 kts | 235° |
| 2026-05-04 19:44 | 43.13612 | -0.91609 | 41030 ft | 416 kts | 235° |
| 2026-05-04 19:44 | 43.10323 | -0.98116 | 41031 ft | 415 kts | 235° |
| 2026-05-04 19:45 | 43.07046 | -1.04583 | 41019 ft | 415 kts | 235° |
| 2026-05-04 19:45 | 43.03748 | -1.11078 | 41023 ft | 416 kts | 235° |
| 2026-05-04 19:46 | 43.00443 | -1.17572 | 41016 ft | 416 kts | 235° |
| 2026-05-04 19:46 | 42.97128 | -1.24073 | 41027 ft | 417 kts | 235° |
| 2026-05-04 19:47 | 42.93805 | -1.30575 | 41025 ft | 417 kts | 235° |
| 2026-05-04 19:47 | 42.90501 | -1.37025 | 41025 ft | 418 kts | 235° |
| 2026-05-04 19:48 | 42.87159 | -1.43536 | 41018 ft | 418 kts | 235° |
| 2026-05-04 19:48 | 42.83839 | -1.49990 | 41021 ft | 418 kts | 235° |
| 2026-05-04 19:49 | 42.80492 | -1.56483 | 41029 ft | 418 kts | 235° |
| 2026-05-04 19:49 | 42.77145 | -1.62966 | 41024 ft | 418 kts | 235° |
| 2026-05-04 19:50 | 42.73900 | -1.69539 | 41012 ft | 418 kts | 242° |
| 2026-05-04 19:50 | 42.71811 | -1.76874 | 41031 ft | 417 kts | 252° |
| 2026-05-04 19:51 | 42.70152 | -1.84436 | 41029 ft | 417 kts | 252° |
| 2026-05-04 19:51 | 42.68466 | -1.91989 | 41034 ft | 417 kts | 252° |
| 2026-05-04 19:52 | 42.66768 | -1.99465 | 41021 ft | 417 kts | 252° |
| 2026-05-04 19:52 | 42.65049 | -2.06993 | 41020 ft | 417 kts | 252° |
| 2026-05-04 19:53 | 42.63326 | -2.14514 | 41022 ft | 417 kts | 252° |
| 2026-05-04 19:53 | 42.61547 | -2.22020 | 41019 ft | 417 kts | 251° |
| 2026-05-04 19:54 | 42.59720 | -2.29497 | 41040 ft | 417 kts | 251° |
| 2026-05-04 19:54 | 42.57892 | -2.36972 | 41029 ft | 417 kts | 251° |
| 2026-05-04 19:55 | 42.56068 | -2.44437 | 41020 ft | 417 kts | 251° |
| 2026-05-04 19:55 | 42.54254 | -2.51849 | 41023 ft | 416 kts | 251° |
| 2026-05-04 19:56 | 42.52423 | -2.59307 | 41026 ft | 416 kts | 251° |
| 2026-05-04 19:56 | 42.50591 | -2.66742 | 41019 ft | 415 kts | 251° |
| 2026-05-04 19:57 | 42.48756 | -2.74169 | 41023 ft | 415 kts | 251° |
| 2026-05-04 19:57 | 42.46920 | -2.81584 | 41031 ft | 414 kts | 251° |
| 2026-05-04 19:58 | 42.45050 | -2.88966 | 41027 ft | 414 kts | 248° |
| 2026-05-04 19:58 | 42.42705 | -2.96070 | 41031 ft | 413 kts | 245° |
| 2026-05-04 19:59 | 42.40263 | -3.03064 | 41029 ft | 413 kts | 245° |
| 2026-05-04 19:59 | 42.37827 | -3.10101 | 41028 ft | 413 kts | 245° |
| 2026-05-04 20:00 | 42.35403 | -3.17165 | 41018 ft | 414 kts | 245° |
| 2026-05-04 20:00 | 42.32983 | -3.24230 | 41012 ft | 414 kts | 245° |
| 2026-05-04 20:01 | 42.30557 | -3.31297 | 41016 ft | 414 kts | 245° |
| 2026-05-04 20:01 | 42.28123 | -3.38372 | 41006 ft | 415 kts | 245° |
| 2026-05-04 20:02 | 42.25679 | -3.45453 | 41005 ft | 416 kts | 245° |
| 2026-05-04 20:02 | 42.23242 | -3.52497 | 40996 ft | 417 kts | 245° |
| 2026-05-04 20:03 | 42.20783 | -3.59587 | 40995 ft | 417 kts | 245° |
| 2026-05-04 20:03 | 42.18312 | -3.66691 | 41017 ft | 418 kts | 245° |
| 2026-05-04 20:04 | 42.15841 | -3.73778 | 41016 ft | 418 kts | 245° |
| 2026-05-04 20:04 | 42.13364 | -3.80864 | 41001 ft | 418 kts | 245° |
| 2026-05-04 20:05 | 42.10883 | -3.87946 | 41005 ft | 418 kts | 245° |
| 2026-05-04 20:05 | 42.08396 | -3.95028 | 41012 ft | 418 kts | 245° |
| 2026-05-04 20:06 | 42.05923 | -4.02052 | 41012 ft | 418 kts | 245° |
| 2026-05-04 20:06 | 42.03429 | -4.09119 | 41009 ft | 418 kts | 245° |
| 2026-05-04 20:07 | 42.00862 | -4.16140 | 41005 ft | 418 kts | 244° |
| 2026-05-04 20:07 | 41.98200 | -4.23087 | 41009 ft | 418 kts | 243° |
| 2026-05-04 20:08 | 41.95530 | -4.30032 | 41008 ft | 418 kts | 243° |
| 2026-05-04 20:08 | 41.92866 | -4.36981 | 41005 ft | 418 kts | 244° |
| 2026-05-04 20:09 | 41.90220 | -4.43887 | 41007 ft | 418 kts | 243° |
| 2026-05-04 20:09 | 41.87558 | -4.50826 | 41004 ft | 418 kts | 244° |
| 2026-05-04 20:10 | 41.84892 | -4.57755 | 41011 ft | 417 kts | 244° |
| 2026-05-04 20:10 | 41.82678 | -4.63499 | 41010 ft | 417 kts | 244° |
| 2026-05-04 20:11 | 41.80007 | -4.70413 | 40996 ft | 416 kts | 244° |
| 2026-05-04 20:11 | 41.76907 | -4.78415 | 40996 ft | 415 kts | 244° |
| 2026-05-04 20:12 | 41.74691 | -4.84123 | 40993 ft | 415 kts | 244° |
| 2026-05-04 20:12 | 41.72024 | -4.90976 | 40993 ft | 415 kts | 244° |
| 2026-05-04 20:13 | 41.69354 | -4.97821 | 40998 ft | 414 kts | 244° |
| 2026-05-04 20:13 | 41.66678 | -5.04666 | 40996 ft | 415 kts | 244° |
| 2026-05-04 20:14 | 41.64020 | -5.11451 | 40996 ft | 414 kts | 244° |
| 2026-05-04 20:14 | 41.61346 | -5.18257 | 41005 ft | 414 kts | 244° |
| 2026-05-04 20:15 | 41.58669 | -5.25057 | 41008 ft | 413 kts | 243° |
| 2026-05-04 20:15 | 41.55986 | -5.31858 | 41016 ft | 413 kts | 243° |
| 2026-05-04 20:16 | 41.53300 | -5.38649 | 41016 ft | 413 kts | 244° |
| 2026-05-04 20:16 | 41.50612 | -5.45429 | 41018 ft | 413 kts | 244° |
| 2026-05-04 20:17 | 41.47915 | -5.52216 | 41021 ft | 414 kts | 243° |
| 2026-05-04 20:17 | 41.45215 | -5.58995 | 41025 ft | 414 kts | 243° |
| 2026-05-04 20:18 | 41.42527 | -5.65730 | 41031 ft | 414 kts | 243° |
| 2026-05-04 20:18 | 41.39817 | -5.72503 | 41025 ft | 414 kts | 244° |
| 2026-05-04 20:19 | 41.37102 | -5.79275 | 41037 ft | 414 kts | 244° |
| 2026-05-04 20:19 | 41.34380 | -5.86046 | 41035 ft | 414 kts | 243° |
| 2026-05-04 20:20 | 41.31659 | -5.92801 | 41040 ft | 414 kts | 243° |
| 2026-05-04 20:20 | 41.28945 | -5.99521 | 41044 ft | 414 kts | 243° |
| 2026-05-04 20:21 | 41.26210 | -6.06280 | 41044 ft | 415 kts | 243° |
| 2026-05-04 20:21 | 41.22101 | -6.16406 | 41049 ft | 415 kts | 244° |
| 2026-05-04 20:22 | 41.19358 | -6.23150 | 41051 ft | 415 kts | 243° |
| 2026-05-04 20:22 | 41.16503 | -6.29749 | 41044 ft | 416 kts | 236° |
| 2026-05-04 20:23 | 41.13037 | -6.35910 | 41058 ft | 416 kts | 236° |
| 2026-05-04 20:23 | 41.09545 | -6.42028 | 41063 ft | 416 kts | 236° |
| 2026-05-04 20:24 | 41.06063 | -6.48158 | 41067 ft | 415 kts | 236° |
| 2026-05-04 20:24 | 41.02596 | -6.54280 | 41068 ft | 415 kts | 236° |
| 2026-05-04 20:25 | 40.99128 | -6.60403 | 41071 ft | 415 kts | 236° |
| 2026-05-04 20:25 | 40.95679 | -6.66482 | 41071 ft | 415 kts | 236° |
| 2026-05-04 20:26 | 40.92210 | -6.72584 | 41063 ft | 414 kts | 236° |
| 2026-05-04 20:26 | 40.88741 | -6.78673 | 41069 ft | 413 kts | 236° |
| 2026-05-04 20:27 | 40.85282 | -6.84733 | 41069 ft | 413 kts | 236° |
| 2026-05-04 20:27 | 40.81819 | -6.90786 | 41077 ft | 413 kts | 236° |
| 2026-05-04 20:28 | 40.78325 | -6.96887 | 40655 ft | 422 kts | 236° |
| 2026-05-04 20:28 | 40.76578 | -6.99932 | 40358 ft | 420 kts | 236° |
| 2026-05-04 20:28 | 40.74820 | -7.02989 | 40025 ft | 416 kts | 236° |
| 2026-05-04 20:29 | 40.73078 | -7.06014 | 39679 ft | 411 kts | 236° |
| 2026-05-04 20:29 | 40.71352 | -7.09011 | 39348 ft | 410 kts | 236° |
| 2026-05-04 20:29 | 40.69631 | -7.11997 | 39018 ft | 409 kts | 236° |
| 2026-05-04 20:29 | 40.67915 | -7.14973 | 38658 ft | 407 kts | 236° |
| 2026-05-04 20:30 | 40.66210 | -7.17927 | 38258 ft | 405 kts | 236° |
| 2026-05-04 20:30 | 40.64509 | -7.20870 | 37840 ft | 403 kts | 236° |
| 2026-05-04 20:30 | 40.62816 | -7.23797 | 37433 ft | 401 kts | 237° |
| 2026-05-04 20:30 | 40.61128 | -7.26713 | 37014 ft | 399 kts | 237° |
| 2026-05-04 20:31 | 40.59445 | -7.29617 | 36623 ft | 397 kts | 237° |
| 2026-05-04 20:31 | 40.57794 | -7.32463 | 36220 ft | 395 kts | 238° |
| 2026-05-04 20:31 | 40.56130 | -7.35328 | 35824 ft | 392 kts | 238° |
| 2026-05-04 20:31 | 40.54474 | -7.38177 | 35454 ft | 390 kts | 238° |
| 2026-05-04 20:32 | 40.52831 | -7.41004 | 35068 ft | 388 kts | 238° |
| 2026-05-04 20:32 | 40.51192 | -7.43820 | 34700 ft | 386 kts | 238° |
| 2026-05-04 20:32 | 40.49561 | -7.46618 | 34341 ft | 385 kts | 238° |
| 2026-05-04 20:32 | 40.47929 | -7.49418 | 33944 ft | 384 kts | 238° |
| 2026-05-04 20:33 | 40.46308 | -7.52196 | 33519 ft | 383 kts | 238° |
| 2026-05-04 20:33 | 40.44683 | -7.54980 | 33095 ft | 387 kts | 238° |
| 2026-05-04 20:33 | 40.43034 | -7.57806 | 32686 ft | 392 kts | 238° |
| 2026-05-04 20:33 | 40.41374 | -7.60645 | 32275 ft | 392 kts | 238° |
| 2026-05-04 20:34 | 40.39733 | -7.63446 | 31873 ft | 392 kts | 238° |
| 2026-05-04 20:34 | 40.38070 | -7.66281 | 31474 ft | 392 kts | 238° |
| 2026-05-04 20:34 | 40.36407 | -7.69113 | 31074 ft | 392 kts | 238° |
| 2026-05-04 20:34 | 40.34745 | -7.71939 | 30702 ft | 391 kts | 238° |
| 2026-05-04 20:35 | 40.33087 | -7.74758 | 30312 ft | 390 kts | 238° |
| 2026-05-04 20:35 | 40.31436 | -7.77562 | 29857 ft | 387 kts | 238° |
| 2026-05-04 20:35 | 40.29799 | -7.80338 | 29395 ft | 383 kts | 238° |
| 2026-05-04 20:35 | 40.28181 | -7.83082 | 28965 ft | 379 kts | 238° |
| 2026-05-04 20:36 | 40.26572 | -7.85808 | 28523 ft | 377 kts | 238° |
| 2026-05-04 20:36 | 40.24972 | -7.88518 | 28095 ft | 375 kts | 238° |
| 2026-05-04 20:36 | 40.23381 | -7.91211 | 27670 ft | 373 kts | 238° |
| 2026-05-04 20:36 | 40.21795 | -7.93893 | 27259 ft | 372 kts | 238° |
| 2026-05-04 20:37 | 40.20212 | -7.96568 | 26830 ft | 371 kts | 238° |
| 2026-05-04 20:37 | 40.18638 | -7.99225 | 26388 ft | 369 kts | 238° |
| 2026-05-04 20:37 | 40.17070 | -8.01869 | 25989 ft | 366 kts | 238° |
| 2026-05-04 20:37 | 40.15512 | -8.04494 | 25584 ft | 365 kts | 238° |
| 2026-05-04 20:38 | 40.13961 | -8.07104 | 25273 ft | 362 kts | 238° |
| 2026-05-04 20:38 | 40.12422 | -8.09693 | 24953 ft | 360 kts | 238° |
| 2026-05-04 20:38 | 40.10888 | -8.12272 | 24638 ft | 358 kts | 238° |
| 2026-05-04 20:38 | 40.09359 | -8.14841 | 24343 ft | 358 kts | 238° |
| 2026-05-04 20:39 | 40.07849 | -8.17379 | 24035 ft | 358 kts | 237° |
| 2026-05-04 20:39 | 40.06321 | -8.19943 | 23721 ft | 357 kts | 237° |
| 2026-05-04 20:39 | 40.04795 | -8.22499 | 23375 ft | 357 kts | 237° |
| 2026-05-04 20:39 | 40.03268 | -8.25055 | 23023 ft | 357 kts | 237° |
| 2026-05-04 20:40 | 40.01699 | -8.27574 | 22567 ft | 359 kts | 231° |
| 2026-05-04 20:40 | 39.99667 | -8.29514 | 22099 ft | 366 kts | 215° |
| 2026-05-04 20:40 | 39.97263 | -8.30699 | 21634 ft | 375 kts | 199° |
| 2026-05-04 20:40 | 39.94681 | -8.31210 | 21176 ft | 375 kts | 194° |
| 2026-05-04 20:41 | 39.92091 | -8.31575 | 20758 ft | 372 kts | 193° |
| 2026-05-04 20:41 | 39.89518 | -8.31914 | 20339 ft | 371 kts | 192° |
| 2026-05-04 20:41 | 39.86954 | -8.32264 | 19894 ft | 369 kts | 192° |
| 2026-05-04 20:41 | 39.84408 | -8.32629 | 19499 ft | 367 kts | 193° |
| 2026-05-04 20:42 | 39.81873 | -8.33010 | 19085 ft | 367 kts | 193° |
| 2026-05-04 20:42 | 39.79482 | -8.33918 | 18656 ft | 352 kts | 216° |
| 2026-05-04 20:42 | 39.77678 | -8.35933 | 18317 ft | 335 kts | 234° |
| 2026-05-04 20:42 | 39.76439 | -8.38366 | 17919 ft | 322 kts | 244° |
| 2026-05-04 20:43 | 39.75377 | -8.40885 | 17498 ft | 314 kts | 245° |
| 2026-05-04 20:43 | 39.74360 | -8.43367 | 17108 ft | 309 kts | 245° |
| 2026-05-04 20:43 | 39.73360 | -8.45815 | 16713 ft | 304 kts | 245° |
| 2026-05-04 20:43 | 39.72363 | -8.48244 | 16325 ft | 303 kts | 245° |
| 2026-05-04 20:44 | 39.71367 | -8.50656 | 15941 ft | 302 kts | 245° |
| 2026-05-04 20:44 | 39.70373 | -8.53047 | 15568 ft | 300 kts | 245° |
| 2026-05-04 20:44 | 39.69378 | -8.55433 | 15197 ft | 299 kts | 245° |
| 2026-05-04 20:44 | 39.68386 | -8.57804 | 14827 ft | 298 kts | 245° |
| 2026-05-04 20:45 | 39.67405 | -8.60141 | 14462 ft | 297 kts | 245° |
| 2026-05-04 20:45 | 39.66418 | -8.62489 | 14104 ft | 296 kts | 245° |
| 2026-05-04 20:45 | 39.65432 | -8.64832 | 13728 ft | 295 kts | 245° |
| 2026-05-04 20:45 | 39.64448 | -8.67168 | 13329 ft | 294 kts | 245° |
| 2026-05-04 20:46 | 39.63469 | -8.69488 | 12931 ft | 290 kts | 244° |
| 2026-05-04 20:46 | 39.62508 | -8.71764 | 12533 ft | 286 kts | 245° |
| 2026-05-04 20:46 | 39.61558 | -8.74009 | 12138 ft | 282 kts | 245° |
| 2026-05-04 20:46 | 39.60621 | -8.76224 | 11761 ft | 279 kts | 245° |
| 2026-05-04 20:47 | 39.59685 | -8.78437 | 11398 ft | 280 kts | 245° |
| 2026-05-04 20:47 | 39.58750 | -8.80646 | 11158 ft | 280 kts | 244° |
| 2026-05-04 20:47 | 39.57807 | -8.82875 | 11134 ft | 283 kts | 244° |
| 2026-05-04 20:47 | 39.56861 | -8.85106 | 11115 ft | 280 kts | 244° |
| 2026-05-04 20:48 | 39.55927 | -8.87306 | 11132 ft | 279 kts | 244° |
| 2026-05-04 20:48 | 39.54989 | -8.89516 | 10979 ft | 279 kts | 244° |
| 2026-05-04 20:48 | 39.54065 | -8.91690 | 10728 ft | 279 kts | 244° |
| 2026-05-04 20:48 | 39.53128 | -8.93892 | 10494 ft | 279 kts | 244° |
| 2026-05-04 20:49 | 39.52189 | -8.96100 | 10266 ft | 280 kts | 244° |
| 2026-05-04 20:49 | 39.51253 | -8.98295 | 10022 ft | 276 kts | 244° |
| 2026-05-04 20:49 | 39.50330 | -9.00460 | 9751 ft | 273 kts | 244° |
| 2026-05-04 20:49 | 39.49418 | -9.02595 | 9485 ft | 269 kts | 244° |
| 2026-05-04 20:50 | 39.48514 | -9.04715 | 9216 ft | 268 kts | 244° |
| 2026-05-04 20:50 | 39.47613 | -9.06822 | 8960 ft | 267 kts | 244° |
| 2026-05-04 20:50 | 39.46715 | -9.08925 | 8695 ft | 265 kts | 244° |
| 2026-05-04 20:50 | 39.45832 | -9.10988 | 8426 ft | 257 kts | 245° |
| 2026-05-04 20:51 | 39.44976 | -9.12984 | 8207 ft | 247 kts | 245° |
| 2026-05-04 20:51 | 39.44053 | -9.14804 | 8129 ft | 244 kts | 225° |
| 2026-05-04 20:51 | 39.42527 | -9.15768 | 8151 ft | 252 kts | 194° |
| 2026-05-04 20:51 | 39.40754 | -9.15855 | 8142 ft | 260 kts | 174° |
| 2026-05-04 20:52 | 39.38986 | -9.15424 | 8150 ft | 262 kts | 170° |
| 2026-05-04 20:52 | 39.37208 | -9.14914 | 8140 ft | 262 kts | 169° |
| 2026-05-04 20:52 | 39.35434 | -9.14397 | 8134 ft | 261 kts | 170° |
| 2026-05-04 20:52 | 39.33662 | -9.13884 | 8139 ft | 260 kts | 170° |
| 2026-05-04 20:53 | 39.31889 | -9.13378 | 8132 ft | 260 kts | 170° |
| 2026-05-04 20:53 | 39.30120 | -9.12879 | 8134 ft | 259 kts | 170° |
| 2026-05-04 20:53 | 39.28354 | -9.12382 | 8108 ft | 261 kts | 170° |
| 2026-05-04 20:53 | 39.26557 | -9.11881 | 7852 ft | 266 kts | 170° |
| 2026-05-04 20:54 | 39.24761 | -9.11382 | 7603 ft | 261 kts | 170° |
| 2026-05-04 20:54 | 39.23004 | -9.10896 | 7314 ft | 256 kts | 170° |
| 2026-05-04 20:54 | 39.21297 | -9.10425 | 7019 ft | 252 kts | 170° |
| 2026-05-04 20:54 | 39.19590 | -9.09954 | 6747 ft | 249 kts | 170° |
| 2026-05-04 20:55 | 39.17902 | -9.09490 | 6482 ft | 247 kts | 169° |
| 2026-05-04 20:55 | 39.16222 | -9.09029 | 6185 ft | 246 kts | 169° |
| 2026-05-04 20:55 | 39.14555 | -9.08571 | 5900 ft | 244 kts | 169° |
| 2026-05-04 20:55 | 39.12889 | -9.08114 | 5648 ft | 246 kts | 169° |
| 2026-05-04 20:56 | 39.11184 | -9.07647 | 5366 ft | 249 kts | 169° |
| 2026-05-04 20:56 | 39.09532 | -9.07195 | 5086 ft | 240 kts | 169° |
| 2026-05-04 20:56 | 39.07950 | -9.06760 | 4842 ft | 224 kts | 170° |
| 2026-05-04 20:56 | 39.06469 | -9.06354 | 4596 ft | 211 kts | 170° |
| 2026-05-04 20:57 | 39.05057 | -9.05967 | 4344 ft | 205 kts | 170° |
| 2026-05-04 20:57 | 39.03665 | -9.05586 | 4115 ft | 205 kts | 170° |
| 2026-05-04 20:57 | 39.02263 | -9.05203 | 4035 ft | 204 kts | 170° |
| 2026-05-04 20:57 | 39.00868 | -9.04823 | 3999 ft | 205 kts | 170° |
| 2026-05-04 20:58 | 38.99462 | -9.04440 | 4007 ft | 207 kts | 169° |
| 2026-05-04 20:58 | 38.98534 | -9.04187 | 4000 ft | 205 kts | 169° |
| 2026-05-04 20:58 | 38.97143 | -9.03818 | 4007 ft | 205 kts | 173° |
| 2026-05-04 20:58 | 38.95770 | -9.04108 | 3907 ft | 199 kts | 211° |
| 2026-05-04 20:59 | 38.94518 | -9.04872 | 3633 ft | 199 kts | 206° |
| 2026-05-04 20:59 | 38.92819 | -9.05733 | 3314 ft | 195 kts | 206° |
| 2026-05-04 20:59 | 38.91987 | -9.06168 | 3103 ft | 187 kts | 207° |
| 2026-05-04 20:59 | 38.90830 | -9.06784 | 2894 ft | 175 kts | 207° |
| 2026-05-04 21:00 | 38.89713 | -9.07384 | 2670 ft | 177 kts | 208° |
| 2026-05-04 21:00 | 38.88582 | -9.07990 | 2399 ft | 174 kts | 208° |
| 2026-05-04 21:00 | 38.87480 | -9.08581 | 2161 ft | 172 kts | 208° |
| 2026-05-04 21:00 | 38.86355 | -9.09185 | 1929 ft | 176 kts | 207° |
| 2026-05-04 21:01 | 38.85224 | -9.09791 | 1721 ft | 176 kts | 207° |
| 2026-05-04 21:01 | 38.84135 | -9.10371 | 1420 ft | 161 kts | 207° |
| 2026-05-04 21:01 | 38.83155 | -9.10896 | 1200 ft | 144 kts | 206° |
| 2026-05-04 21:01 | 38.82270 | -9.11370 | 1028 ft | 135 kts | 206° |
| 2026-05-04 21:02 | 38.81394 | -9.11843 | 863 ft | 139 kts | 207° |
| 2026-05-04 21:02 | 38.80518 | -9.12312 | 693 ft | 134 kts | 205° |
| 2026-05-04 21:02 | 38.79663 | -9.12771 | 488 ft | 132 kts | 204° |
| 2026-05-04 21:02 | 38.78823 | -9.13219 | 365 ft | 127 kts | 202° |
| 2026-05-04 21:03 | 38.78154 | -9.13579 | 368 ft | 65 kts | 202° |
| 2026-05-04 21:03 | 38.77866 | -9.13730 | 364 ft | 30 kts | 198° |
| 2026-05-04 21:03 | 38.77673 | -9.13761 | 364 ft | 25 kts | 178° |
| 2026-05-04 21:03 | 38.77539 | -9.13755 | 360 ft | 12 kts | 178° |
| 2026-05-04 21:04 | 38.77450 | -9.13750 | 357 ft | 13 kts | 178° |
| 2026-05-04 21:04 | 38.77366 | -9.13773 | 356 ft | 11 kts | 203° |
| 2026-05-04 21:04 | 38.77304 | -9.13807 | 355 ft | 10 kts | 203° |
| 2026-05-04 21:04 | 38.77241 | -9.13840 | 353 ft | 10 kts | 202° |
| 2026-05-04 21:05 | 38.77185 | -9.13870 | 353 ft | 8 kts | 203° |
| 2026-05-04 21:05 | 38.77131 | -9.13897 | 356 ft | 9 kts | 194° |
| 2026-05-04 21:05 | 38.77061 | -9.13891 | 352 ft | 10 kts | 168° |
| 2026-05-04 21:05 | 38.76992 | -9.13871 | 349 ft | 10 kts | 168° |
| 2026-05-04 21:06 | 38.76926 | -9.13853 | 353 ft | 10 kts | 168° |
| 2026-05-04 21:06 | 38.76856 | -9.13835 | 346 ft | 9 kts | 168° |
| 2026-05-04 21:06 | 38.76791 | -9.13817 | 353 ft | 10 kts | 168° |
| 2026-05-04 21:06 | 38.76726 | -9.13799 | 344 ft | 9 kts | 168° |
| 2026-05-04 21:07 | 38.76663 | -9.13782 | 348 ft | 9 kts | 168° |
| 2026-05-04 21:07 | 38.76619 | -9.13738 | 349 ft | 7 kts | 108° |
| 2026-05-04 21:07 | 38.76611 | -9.13682 | 349 ft | 6 kts | 124° |
| 2026-05-04 21:07 | 38.76583 | -9.13664 | 346 ft | 3 kts | 162° |
| 2026-05-04 21:08 | 38.76564 | -9.13648 | 352 ft | 3 kts | 128° |
| 2026-05-04 21:08 | 38.76558 | -9.13621 | 348 ft | 3 kts | 106° |
| 2026-05-04 21:08 | 38.76541 | -9.13603 | 354 ft | 3 kts | 158° |
| 2026-05-04 21:08 | 38.76514 | -9.13595 | 352 ft | 4 kts | 169° |
| 2026-05-04 21:09 | 38.76497 | -9.13591 | 347 ft | 2 kts | 169° |
| 2026-05-04 21:09 | 38.76488 | -9.13589 | 347 ft | 1 kts | 168° |
| 2026-05-04 21:09 | 38.76486 | -9.13588 | 347 ft | 0 kts | 168° |